Terminal Aerodrome Forecast
Issued by NWS Huntsville, AL

Home | Current Version | Previous Version | Text Only | Print | Product List | Glossary On
Versions: 1 2 3 4 5 6 7 8 9 10 11 12 13 14 15
000
FTUS44 KHUN 211720
TAFMSL
TAF
KMSL 211720Z 2118/2218 17012KT P6SM VCSH SCT035 OVC090
     FM211900 13009KT P6SM -SHRA SCT015 BKN035 OVC050
     FM220200 11005KT 5SM -DZ BR OVC015
     FM220800 09003KT 3SM -DZ BR BKN008 OVC015
     FM221500 14004KT 5SM BR SCT012 OVC020=

USA.gov is the U.S. government's official web portal to all federal, state and local government web resources and services.